DONNELLS (DON)

Elevation: 4835' · STANISLAUS R basin · Operator: US Bureau of Reclamation

Provisional data, subject to change.
Query executed Wednesday at 20:07:38   clock

Select a sensor type for a plot of data.
Note: Reservoir Flows are daily averages.

Earlier

Date STORAGE    RES CHG    OUTFLOW   
 AF   AF   CFS  
05/30/2016 58438 204 1419
05/31/2016 58731 293 1638
06/01/2016 59079 348 1911
06/02/2016 59221 142 2104
06/03/2016 58985 -236 2073
06/04/2016 59980 995 2022
06/05/2016 58919 -1061 1981
06/06/2016 58903 -16 1918
06/07/2016 58956 53 1958
06/08/2016 58948 -8 2005
06/09/2016 58768 -180 1893
06/10/2016 58625 -143 1736
06/11/2016 58409 -216 1582
06/12/2016 58161 -248 1358
06/13/2016 57990 -171 1209
06/14/2016 58222 232 1001
06/15/2016 58352 130 973
06/16/2016 58205 -147 915
06/17/2016 58133 -72 863
06/18/2016 58287 154 804
06/19/2016 58809 522 701
06/20/2016 59394 585 822
06/21/2016 60209 815 849
06/22/2016 60841 632 916
06/23/2016 60912 71 1059
06/24/2016 60771 -141 1022
06/25/2016 60829 58 891
06/26/2016 60978 149 857
06/27/2016 61157 e 179 860
06/28/2016 61335 178 687
06/29/2016 -- -- --

Later | Latest

Warning! This data is preliminary and subject to revision.

Show DON Map | Plot DON Data | 1 Month DON Data | Real-Time DON Data | DON Info